Time;durP1;ratioP1;P1;durP2;ratioP2;P2;SDS_P1;SDS_P2;PMS_P1;PMS_P2;Temp;Humidity;BMP_temperature;BMP_pressure;BME280_temperature;BME280_humidity;BME280_pressure;Samples;Min_cycle;Max_cycle;Signal;HPM_P1;HPM_P2
2023/11/02 00:02:27;;;;;;;4.05;0.73;;;10.20;99.90;;;;;;5070638;28;20051;-67
2023/11/02 00:04:55;;;;;;;5.07;1.13;;;10.10;99.90;;;;;;5069040;28;20131;-67
2023/11/02 00:07:21;;;;;;;6.10;1.00;;;10.10;99.90;;;;;;5066651;28;20175;-67
2023/11/02 00:09:48;;;;;;;1.98;0.50;;;10.10;99.90;;;;;;5069104;28;20136;-67
2023/11/02 00:12:19;;;;;;;3.60;1.05;;;10.10;99.90;;;;;;5069336;28;20045;-67
2023/11/02 00:14:47;;;;;;;3.75;1.15;;;10.10;99.90;;;;;;5069569;28;20049;-67
2023/11/02 00:17:37;;;;;;;4.28;0.90;;;10.10;99.90;;;;;;5067402;28;20044;-67
2023/11/02 00:20:07;;;;;;;5.03;0.80;;;10.10;99.90;;;;;;5065643;28;20067;-67
2023/11/02 00:22:40;;;;;;;5.43;0.68;;;10.10;99.90;;;;;;5068091;28;20064;-67
2023/11/02 00:25:07;;;;;;;4.35;0.70;;;10.10;99.90;;;;;;5099242;28;20486;-67
2023/11/02 00:27:36;;;;;;;4.43;0.95;;;10.10;99.90;;;;;;5099204;28;20185;-67
2023/11/02 00:30:03;;;;;;;3.70;1.13;;;10.10;99.90;;;;;;5066792;28;20123;-67
2023/11/02 00:32:28;;;;;;;5.30;0.73;;;10.10;99.90;;;;;;5067479;28;20039;-67
2023/11/02 00:34:54;;;;;;;4.82;0.80;;;10.10;99.90;;;;;;5068747;28;20032;-67
2023/11/02 00:37:20;;;;;;;9.18;1.25;;;10.10;99.90;;;;;;5063330;28;20048;-67
2023/11/02 00:39:46;;;;;;;7.25;1.25;;;10.20;99.90;;;;;;5067950;28;20032;-67
2023/11/02 00:42:13;;;;;;;4.00;1.20;;;10.20;99.90;;;;;;5065251;28;20049;-67
2023/11/02 00:44:40;;;;;;;7.00;0.70;;;10.20;99.90;;;;;;5069430;28;20623;-67
2023/11/02 00:47:06;;;;;;;3.83;0.63;;;10.20;99.90;;;;;;5066283;28;20048;-67
2023/11/02 00:49:32;;;;;;;3.55;0.60;;;10.30;99.90;;;;;;5066655;28;20391;-67
2023/11/02 00:52:04;;;;;;;2.40;0.60;;;10.30;99.90;;;;;;5064487;28;20139;-67
2023/11/02 00:54:44;;;;;;;9.23;0.95;;;10.30;99.90;;;;;;5067231;28;20547;-67
2023/11/02 00:57:11;;;;;;;4.07;0.88;;;10.30;99.90;;;;;;5066513;28;20044;-67
2023/11/02 00:59:38;;;;;;;3.95;0.60;;;10.30;99.90;;;;;;5064496;28;20047;-67
2023/11/02 01:02:05;;;;;;;2.17;0.57;;;10.30;99.90;;;;;;5065343;28;20041;-67
2023/11/02 01:04:43;;;;;;;5.90;0.68;;;10.40;99.90;;;;;;5063401;28;20542;-67
2023/11/02 01:07:10;;;;;;;5.50;0.70;;;10.30;99.90;;;;;;5065547;28;20052;-67
2023/11/02 01:09:50;;;;;;;2.63;0.73;;;10.30;99.90;;;;;;5066244;28;20126;-67
2023/11/02 01:12:36;;;;;;;4.65;0.57;;;10.30;99.90;;;;;;5065165;28;20052;-67
2023/11/02 01:15:06;;;;;;;3.55;0.40;;;10.30;99.90;;;;;;5066446;28;20123;-67
2023/11/02 01:17:35;;;;;;;6.97;0.80;;;10.30;99.90;;;;;;5066141;28;20094;-67
2023/11/02 01:20:30;;;;;;;2.00;0.40;;;10.30;99.90;;;;;;5066060;28;20044;-67
2023/11/02 01:23:06;;;;;;;2.53;0.50;;;10.30;99.90;;;;;;5066839;28;20403;-67
2023/11/02 01:25:41;;;;;;;4.57;0.70;;;10.30;99.90;;;;;;5066124;28;20575;-67
2023/11/02 01:28:07;;;;;;;3.63;0.77;;;10.30;99.90;;;;;;5066623;28;20040;-67
2023/11/02 01:31:00;;;;;;;2.65;0.60;;;10.30;99.90;;;;;;5066398;28;20040;-67
2023/11/02 01:33:37;;;;;;;5.40;0.77;;;10.20;99.90;;;;;;5049514;28;20040;-67
2023/11/02 01:36:07;;;;;;;5.38;0.75;;;10.30;99.90;;;;;;5064250;28;20124;-67
2023/11/02 01:38:34;;;;;;;4.57;1.02;;;10.20;99.90;;;;;;5098031;28;20052;-67
2023/11/02 01:41:32;;;;;;;4.97;0.47;;;10.20;99.90;;;;;;5067405;28;20047;-67
2023/11/02 01:44:00;;;;;;;2.42;0.52;;;10.20;99.90;;;;;;5067451;28;20478;-67
2023/11/02 01:46:57;;;;;;;2.65;0.40;;;10.20;99.90;;;;;;5064621;28;20044;-67
2023/11/02 01:49:46;;;;;;;4.15;0.57;;;10.20;99.90;;;;;;5064122;28;20048;-67
2023/11/02 01:52:26;;;;;;;6.38;0.60;;;10.10;99.90;;;;;;5094805;28;20479;-67
2023/11/02 01:55:18;;;;;;;4.18;0.65;;;10.20;99.90;;;;;;5067560;28;20043;-67
2023/11/02 01:58:09;;;;;;;3.00;0.52;;;10.10;99.90;;;;;;5062924;28;20044;-67
2023/11/02 02:00:41;;;;;;;5.70;0.82;;;10.10;99.90;;;;;;5063464;28;20395;-67
2023/11/02 02:03:21;;;;;;;2.72;0.80;;;10.10;99.90;;;;;;5061479;28;20033;-67
2023/11/02 02:05:55;;;;;;;4.00;1.27;;;10.10;99.90;;;;;;5097183;28;20045;-67
2023/11/02 02:08:52;;;;;;;4.07;0.73;;;10.10;99.90;;;;;;5065441;28;20483;-67
2023/11/02 02:11:37;;;;;;;2.63;0.60;;;10.10;99.90;;;;;;5065362;28;20036;-67
2023/11/02 02:14:32;;;;;;;2.05;0.50;;;10.10;99.90;;;;;;5064397;28;20044;-67
2023/11/02 02:17:21;;;;;;;5.55;0.80;;;10.10;99.90;;;;;;5050035;28;20109;-67
2023/11/02 02:20:07;;;;;;;2.72;0.50;;;10.10;99.90;;;;;;5097868;28;20059;-67
2023/11/02 02:22:36;;;;;;;;;;;10.10;99.90;;;;;;5064858;28;20032;-67
2023/11/02 02:25:30;;;;;;;3.72;0.60;;;10.20;99.90;;;;;;5070846;28;19925;-67
2023/11/02 02:28:18;;;;;;;3.42;0.85;;;10.10;99.90;;;;;;5068447;28;20419;-67
2023/11/02 02:31:08;;;;;;;3.20;0.80;;;10.10;99.90;;;;;;5102317;28;20047;-67
2023/11/02 02:33:52;;;;;;;7.78;0.98;;;10.10;99.90;;;;;;5068861;28;20056;-67
2023/11/02 02:36:36;;;;;;;3.53;0.70;;;10.10;99.90;;;;;;5086699;28;20135;-67
2023/11/02 02:39:08;;;;;;;3.95;1.23;;;10.00;99.90;;;;;;5068513;28;20083;-67
2023/11/02 02:41:44;;;;;;;4.47;0.90;;;10.10;99.90;;;;;;5070297;28;20425;-67
2023/11/02 02:44:13;;;;;;;1.83;0.57;;;10.00;99.90;;;;;;5070479;28;20048;-67
2023/11/02 02:46:40;;;;;;;2.47;0.50;;;10.00;99.90;;;;;;5069221;28;20988;-67
2023/11/02 02:49:06;;;;;;;5.53;1.15;;;10.00;99.90;;;;;;5068365;28;20036;-67
2023/11/02 02:51:36;;;;;;;2.17;0.40;;;10.00;99.90;;;;;;5067662;28;20055;-67
2023/11/02 02:54:07;;;;;;;3.90;0.70;;;10.00;99.90;;;;;;5070760;28;20079;-67
2023/11/02 02:56:34;;;;;;;2.53;0.98;;;10.00;99.90;;;;;;5067015;28;20049;-67
2023/11/02 02:59:03;;;;;;;2.55;0.50;;;10.00;99.90;;;;;;5068081;28;20037;-67
2023/11/02 03:01:37;;;;;;;3.38;0.50;;;10.00;99.90;;;;;;5064637;28;20036;-67
2023/11/02 03:04:06;;;;;;;3.38;0.60;;;9.90;99.90;;;;;;5064893;28;20127;-67
2023/11/02 03:06:32;;;;;;;3.70;0.63;;;9.90;99.90;;;;;;5071862;28;20041;-67
2023/11/02 03:08:59;;;;;;;5.57;0.82;;;9.90;99.90;;;;;;5067630;28;20040;-67
2023/11/02 03:11:27;;;;;;;3.10;0.50;;;9.80;99.90;;;;;;5068459;28;20414;-67
2023/11/02 03:13:55;;;;;;;3.03;0.60;;;10.10;99.90;;;;;;5066583;28;20040;-67
2023/11/02 03:16:23;;;;;;;2.20;1.00;;;9.70;99.90;;;;;;5068442;28;20095;-67
2023/11/02 03:18:49;;;;;;;2.28;0.55;;;9.80;99.90;;;;;;5085668;28;20483;-67
2023/11/02 03:21:15;;;;;;;4.38;0.73;;;9.80;99.90;;;;;;5069763;28;20052;-67
2023/11/02 03:24:02;;;;;;;1.58;0.47;;;9.70;99.90;;;;;;5069942;28;20119;-67
2023/11/02 03:26:34;;;;;;;1.52;0.52;;;9.70;99.90;;;;;;5067523;28;20047;-67
2023/11/02 03:29:06;;;;;;;3.33;0.70;;;9.70;99.90;;;;;;5067524;28;20049;-67
2023/11/02 03:31:56;;;;;;;2.13;0.70;;;9.70;99.90;;;;;;5098925;28;20105;-67
2023/11/02 03:34:26;;;;;;;3.55;0.50;;;9.70;99.90;;;;;;5067372;28;20059;-67
2023/11/02 03:37:02;;;;;;;4.53;0.60;;;9.70;99.90;;;;;;5069197;28;20040;-67
2023/11/02 03:40:03;;;;;;;3.70;0.95;;;9.70;99.90;;;;;;5064891;28;20495;-67
2023/11/02 03:42:43;;;;;;;1.98;0.65;;;9.70;99.90;;;;;;5060963;28;20063;-67
2023/11/02 03:45:37;;;;;;;7.20;1.20;;;9.70;99.90;;;;;;5066610;28;20048;-67
2023/11/02 03:48:09;;;;;;;3.03;0.85;;;9.70;99.90;;;;;;5070502;28;20114;-67
2023/11/02 03:51:03;;;;;;;5.55;0.82;;;9.70;99.90;;;;;;5063297;28;20043;-67
2023/11/02 03:53:43;;;;;;;4.00;0.50;;;9.80;99.90;;;;;;5063817;28;20098;-67
2023/11/02 03:56:29;;;;;;;2.13;0.50;;;9.70;99.90;;;;;;5069066;28;20045;-67
2023/11/02 03:59:06;;;;;;;2.13;0.38;;;9.70;99.90;;;;;;5063645;28;20079;-67
2023/11/02 04:01:57;;;;;;;3.47;0.63;;;9.80;99.90;;;;;;5070780;28;20060;-67
2023/11/02 04:04:40;;;;;;;4.15;0.57;;;9.70;99.90;;;;;;5066277;28;20049;-67
2023/11/02 04:07:21;;;;;;;3.25;0.50;;;9.70;99.90;;;;;;5068117;28;20036;-67
2023/11/02 04:09:52;;;;;;;2.47;0.50;;;9.70;99.90;;;;;;5068777;28;20064;-67
2023/11/02 04:12:38;;;;;;;2.58;0.40;;;9.70;99.90;;;;;;5067517;28;20084;-67
2023/11/02 04:15:07;;;;;;;3.28;0.70;;;9.80;99.90;;;;;;5043634;28;20063;-67
2023/11/02 04:17:32;;;;;;;1.33;0.50;;;9.80;99.90;;;;;;5065697;28;20044;-67
2023/11/02 04:19:58;;;;;;;2.75;0.40;;;9.80;99.90;;;;;;5067827;28;20376;-67
2023/11/02 04:22:24;;;;;;;1.38;0.30;;;9.80;99.90;;;;;;5068665;28;20050;-67
2023/11/02 04:24:50;;;;;;;2.95;0.43;;;9.80;99.90;;;;;;5068993;28;20075;-67
2023/11/02 04:27:16;;;;;;;4.60;0.55;;;10.30;99.90;;;;;;5066304;28;20036;-67
2023/11/02 04:29:41;;;;;;;2.25;0.30;;;9.90;99.90;;;;;;5068032;28;20384;-67
2023/11/02 04:32:07;;;;;;;3.40;0.60;;;9.90;99.90;;;;;;5049631;28;20039;-67
2023/11/02 04:34:32;;;;;;;2.17;0.50;;;9.90;99.90;;;;;;5066032;28;20402;-67
2023/11/02 04:36:58;;;;;;;6.18;0.93;;;9.90;99.90;;;;;;5065758;28;20048;-67
2023/11/02 04:39:24;;;;;;;1.63;0.40;;;9.90;99.90;;;;;;5067173;28;20471;-67
2023/11/02 04:41:50;;;;;;;2.53;0.30;;;9.90;99.90;;;;;;5098899;27;20039;-67
2023/11/02 04:44:16;;;;;;;3.75;0.40;;;9.90;99.90;;;;;;5065722;28;20679;-67
2023/11/02 04:46:42;;;;;;;2.85;0.40;;;9.90;99.90;;;;;;5064511;28;20062;-67
2023/11/02 04:49:08;;;;;;;2.92;0.30;;;10.00;99.90;;;;;;5065216;28;20037;-67
2023/11/02 04:51:34;;;;;;;3.00;0.88;;;10.00;99.90;;;;;;5067852;28;20040;-67
2023/11/02 04:54:00;;;;;;;4.75;0.40;;;10.10;99.90;;;;;;5066879;28;20038;-67
2023/11/02 04:56:26;;;;;;;1.08;0.20;;;10.10;99.90;;;;;;5065683;28;20040;-67
2023/11/02 04:58:51;;;;;;;1.90;0.32;;;10.10;99.90;;;;;;5067913;28;21065;-67
2023/11/02 05:01:17;;;;;;;2.05;0.38;;;10.10;99.90;;;;;;5065764;28;20522;-67
2023/11/02 05:03:43;;;;;;;1.92;0.30;;;10.10;99.90;;;;;;5065599;28;20051;-68
2023/11/02 05:06:09;;;;;;;4.88;0.30;;;10.10;99.90;;;;;;5065787;28;20049;-67
2023/11/02 05:08:35;;;;;;;4.55;0.50;;;10.10;99.90;;;;;;5065953;28;20032;-67
2023/11/02 05:11:01;;;;;;;2.67;0.25;;;10.20;99.90;;;;;;5067288;28;20045;-67
2023/11/02 05:13:26;;;;;;;2.33;0.30;;;10.10;99.90;;;;;;5062880;28;20101;-67
2023/11/02 05:15:55;;;;;;;1.40;0.38;;;10.20;99.90;;;;;;5067061;28;20155;-67
2023/11/02 05:18:21;;;;;;;1.90;0.40;;;10.20;99.90;;;;;;5067293;28;20403;-67
2023/11/02 05:20:46;;;;;;;1.60;0.30;;;10.10;99.90;;;;;;5066649;28;20049;-67
2023/11/02 05:23:12;;;;;;;1.23;0.30;;;10.20;99.90;;;;;;5064546;28;20106;-67
2023/11/02 05:25:38;;;;;;;4.65;0.47;;;10.20;99.90;;;;;;5067901;28;20033;-67
2023/11/02 05:28:04;;;;;;;3.05;0.30;;;10.20;99.90;;;;;;5066477;28;20051;-67
2023/11/02 05:30:30;;;;;;;2.58;0.70;;;10.10;99.90;;;;;;5092660;28;20138;-67
2023/11/02 05:32:55;;;;;;;4.13;0.50;;;10.20;99.90;;;;;;5067715;28;20123;-67
2023/11/02 05:35:21;;;;;;;3.53;0.40;;;10.20;99.90;;;;;;5070032;28;20044;-67
2023/11/02 05:37:47;;;;;;;3.40;0.40;;;10.20;99.90;;;;;;5066441;28;20095;-67
2023/11/02 05:40:12;;;;;;;5.53;0.40;;;10.30;99.90;;;;;;5066306;28;20048;-67
2023/11/02 05:42:38;;;;;;;4.50;0.50;;;10.30;99.90;;;;;;5078287;28;20491;-67
2023/11/02 05:45:04;;;;;;;1.17;0.30;;;10.30;99.90;;;;;;5066207;28;20461;-67
2023/11/02 05:47:30;;;;;;;2.28;0.43;;;10.30;99.90;;;;;;5093746;28;20036;-67
2023/11/02 05:49:55;;;;;;;6.10;0.63;;;10.30;99.90;;;;;;5065461;28;20034;-67
2023/11/02 05:52:21;;;;;;;3.47;1.50;;;10.30;99.90;;;;;;5066357;28;20044;-67
2023/11/02 05:54:47;;;;;;;3.58;0.40;;;10.40;99.90;;;;;;5068441;28;20131;-67
2023/11/02 05:57:14;;;;;;;1.30;0.22;;;9.50;99.90;;;;;;5066655;28;20056;-67
2023/11/02 05:59:40;;;;;;;6.60;0.50;;;10.40;99.90;;;;;;5067678;28;20075;-67
2023/11/02 06:02:07;;;;;;;0.82;0.30;;;10.40;99.90;;;;;;5067106;28;20467;-67
2023/11/02 06:04:32;;;;;;;2.08;0.30;;;10.40;99.90;;;;;;5070777;28;20123;-67
2023/11/02 06:06:58;;;;;;;3.10;0.57;;;10.50;99.90;;;;;;5070020;28;20115;-67
2023/11/02 06:09:24;;;;;;;4.07;0.63;;;10.50;99.90;;;;;;5071138;28;20475;-67
2023/11/02 06:11:49;;;;;;;10.00;0.50;;;10.50;99.90;;;;;;5072415;28;20024;-67
2023/11/02 06:14:15;;;;;;;2.40;0.38;;;10.70;99.90;;;;;;5067953;28;20044;-67
2023/11/02 06:16:41;;;;;;;2.40;0.38;;;10.60;99.90;;;;;;5069089;28;20036;-67
2023/11/02 06:19:06;;;;;;;4.55;0.40;;;10.60;99.90;;;;;;5066543;28;20033;-67
2023/11/02 06:21:33;;;;;;;5.20;0.40;;;10.70;99.90;;;;;;5068640;28;20090;-67
2023/11/02 06:23:58;;;;;;;3.35;0.35;;;10.70;99.90;;;;;;5069146;28;20089;-67
2023/11/02 06:26:24;;;;;;;3.97;0.35;;;10.60;99.90;;;;;;5068613;28;20052;-67
2023/11/02 06:28:50;;;;;;;3.22;0.52;;;10.70;99.90;;;;;;5082075;28;20035;-68
2023/11/02 06:31:15;;;;;;;2.22;0.60;;;10.70;99.90;;;;;;5067411;28;20063;-67
2023/11/02 06:33:41;;;;;;;3.70;0.73;;;10.70;99.90;;;;;;5080387;28;20040;-67
2023/11/02 06:36:07;;;;;;;3.80;0.40;;;10.80;99.90;;;;;;5069756;28;20617;-67
2023/11/02 06:38:33;;;;;;;1.77;0.50;;;10.80;99.90;;;;;;5068121;28;20415;-67
2023/11/02 06:40:59;;;;;;;3.42;0.90;;;10.80;99.90;;;;;;5069032;28;20080;-67
2023/11/02 06:43:26;;;;;;;5.25;0.40;;;10.80;99.90;;;;;;5070228;28;20068;-67
2023/11/02 06:45:52;;;;;;;3.20;0.30;;;10.80;99.90;;;;;;5068218;28;20070;-67
2023/11/02 06:48:18;;;;;;;1.15;0.20;;;10.80;99.90;;;;;;5070918;28;20115;-67
2023/11/02 06:50:46;;;;;;;2.53;0.50;;;10.80;99.90;;;;;;5068726;28;20163;-67
2023/11/02 06:53:12;;;;;;;1.90;0.30;;;10.80;99.90;;;;;;5068875;28;20053;-67
2023/11/02 06:55:40;;;;;;;2.45;0.30;;;10.80;99.90;;;;;;5068399;28;20040;-67
2023/11/02 06:58:05;;;;;;;2.78;0.75;;;10.90;99.90;;;;;;5067327;28;20075;-67
2023/11/02 07:00:31;;;;;;;2.53;0.35;;;10.80;99.90;;;;;;5068185;28;20060;-67
2023/11/02 07:02:57;;;;;;;1.38;0.40;;;10.90;99.90;;;;;;5068974;28;20068;-68
2023/11/02 07:05:23;;;;;;;10.65;0.60;;;10.90;99.90;;;;;;5070704;28;20487;-67
2023/11/02 07:07:49;;;;;;;5.18;1.63;;;10.90;99.90;;;;;;5080442;28;20040;-67
2023/11/02 07:10:16;;;;;;;2.67;0.50;;;10.90;99.90;;;;;;5068138;28;20083;-67
2023/11/02 07:12:42;;;;;;;4.13;0.52;;;10.90;99.90;;;;;;5069095;28;20437;-67
2023/11/02 07:15:08;;;;;;;2.47;0.30;;;10.90;99.90;;;;;;5067259;28;20048;-67
2023/11/02 07:17:34;;;;;;;3.28;0.38;;;10.80;99.90;;;;;;5063704;28;20545;-67
2023/11/02 07:19:59;;;;;;;3.88;0.32;;;10.80;99.90;;;;;;5068323;28;20040;-67
2023/11/02 07:22:25;;;;;;;2.35;0.40;;;10.90;99.90;;;;;;5061460;28;20040;-67
2023/11/02 07:24:51;;;;;;;4.90;0.85;;;10.90;99.90;;;;;;5065251;28;20044;-67
2023/11/02 07:27:16;;;;;;;4.28;0.57;;;10.90;99.90;;;;;;5067079;28;20042;-67
2023/11/02 07:29:42;;;;;;;1.95;0.45;;;10.90;99.90;;;;;;5067394;28;20422;-67
2023/11/02 07:32:10;;;;;;;3.65;0.60;;;11.00;99.90;;;;;;5060903;28;20095;-67
2023/11/02 07:34:35;;;;;;;5.43;1.50;;;11.00;99.90;;;;;;5098619;27;20082;-67
2023/11/02 07:37:01;;;;;;;1.15;0.30;;;10.90;99.90;;;;;;5063343;28;20044;-67
2023/11/02 07:39:30;;;;;;;1.80;0.30;;;11.10;99.90;;;;;;5060349;28;20048;-67
2023/11/02 07:41:55;;;;;;;1.98;0.40;;;11.00;99.90;;;;;;5065013;28;20048;-67
2023/11/02 07:44:21;;;;;;;3.10;0.50;;;11.00;99.90;;;;;;5061163;28;20055;-67
2023/11/02 07:46:47;;;;;;;1.75;0.30;;;11.00;99.90;;;;;;5062233;28;20838;-67
2023/11/02 07:49:13;;;;;;;4.60;0.40;;;11.10;99.90;;;;;;5064891;28;20036;-67
2023/11/02 07:51:38;;;;;;;3.85;0.30;;;11.00;99.90;;;;;;5066882;28;20056;-67
2023/11/02 07:54:07;;;;;;;2.45;0.40;;;10.90;99.90;;;;;;5062650;28;20036;-67
2023/11/02 07:56:32;;;;;;;5.28;0.98;;;11.00;99.90;;;;;;5065812;28;20098;-67
2023/11/02 07:58:58;;;;;;;3.50;0.75;;;11.00;99.90;;;;;;5065361;28;20036;-67
2023/11/02 08:01:24;;;;;;;3.60;0.45;;;11.00;99.90;;;;;;5064581;28;20086;-67
2023/11/02 08:03:50;;;;;;;2.20;0.22;;;10.90;99.90;;;;;;5092988;28;20040;-67
2023/11/02 08:06:15;;;;;;;2.45;0.35;;;11.00;99.90;;;;;;5058253;28;20049;-67
2023/11/02 08:08:41;;;;;;;1.80;0.40;;;10.90;99.90;;;;;;5063920;28;20561;-67
2023/11/02 08:11:07;;;;;;;2.00;0.30;;;10.90;99.90;;;;;;5063461;28;20043;-67
2023/11/02 08:13:33;;;;;;;2.25;0.38;;;10.90;99.90;;;;;;5060727;28;20135;-67
2023/11/02 08:15:58;;;;;;;3.40;0.52;;;10.90;99.90;;;;;;5065821;28;20137;-67
2023/11/02 08:18:24;;;;;;;2.55;0.20;;;11.00;99.90;;;;;;5095526;27;20041;-67
2023/11/02 08:20:50;;;;;;;2.30;0.30;;;11.00;99.90;;;;;;5061607;28;20039;-67
2023/11/02 08:23:16;;;;;;;1.70;0.30;;;11.00;99.90;;;;;;5060256;28;20089;-67
2023/11/02 08:25:45;;;;;;;2.78;0.38;;;11.20;99.90;;;;;;5064234;28;20032;-67
2023/11/02 08:28:11;;;;;;;4.20;0.40;;;11.00;99.90;;;;;;5063073;28;20044;-67
2023/11/02 08:30:37;;;;;;;2.60;0.40;;;11.10;99.90;;;;;;5072865;28;20123;-67
2023/11/02 08:33:03;;;;;;;1.50;0.25;;;11.10;99.90;;;;;;5063189;28;20063;-68
2023/11/02 08:35:29;;;;;;;2.03;0.50;;;11.10;99.90;;;;;;5061715;28;20045;-67
2023/11/02 08:37:54;;;;;;;4.03;0.65;;;11.10;99.90;;;;;;5061035;28;20063;-67
2023/11/02 08:40:21;;;;;;;2.80;0.50;;;11.10;99.90;;;;;;5061885;28;20967;-67
2023/11/02 08:42:48;;;;;;;2.30;0.28;;;11.10;99.90;;;;;;5061183;28;20068;-67
2023/11/02 08:45:15;;;;;;;1.95;0.40;;;11.20;99.90;;;;;;5065451;28;20052;-67
2023/11/02 08:47:42;;;;;;;1.08;0.30;;;11.20;99.90;;;;;;5062626;28;20139;-67
2023/11/02 08:50:09;;;;;;;1.83;0.43;;;11.20;99.90;;;;;;5063723;28;20136;-67
2023/11/02 08:52:35;;;;;;;3.72;0.40;;;11.10;99.90;;;;;;5063711;28;20898;-67
2023/11/02 08:55:03;;;;;;;4.10;0.93;;;11.20;99.90;;;;;;5060593;28;20039;-67
2023/11/02 08:57:29;;;;;;;1.92;0.57;;;11.20;99.90;;;;;;5043320;28;20048;-67
2023/11/02 08:59:58;;;;;;;3.05;0.30;;;11.20;99.90;;;;;;5063969;28;20457;-67
2023/11/02 09:02:24;;;;;;;2.13;0.40;;;11.10;99.90;;;;;;5062857;28;20037;-67
2023/11/02 09:04:50;;;;;;;1.63;0.22;;;11.20;99.90;;;;;;5063537;28;20063;-67
2023/11/02 09:07:16;;;;;;;3.80;0.30;;;11.30;99.90;;;;;;5063061;28;20047;-67
2023/11/02 09:09:42;;;;;;;1.30;0.20;;;11.30;99.90;;;;;;5065626;28;20036;-67
2023/11/02 09:12:08;;;;;;;1.17;0.50;;;11.40;99.90;;;;;;5063356;28;20135;-67
2023/11/02 09:14:33;;;;;;;1.55;0.30;;;11.50;99.90;;;;;;5058918;28;20037;-67
2023/11/02 09:17:00;;;;;;;3.00;0.22;;;11.60;99.90;;;;;;5060249;28;20044;-67
2023/11/02 09:19:26;;;;;;;2.33;0.40;;;11.70;99.90;;;;;;5062790;28;20081;-67
2023/11/02 09:21:54;;;;;;;0.95;0.15;;;11.90;99.90;;;;;;5064552;28;20139;-67
2023/11/02 09:24:19;;;;;;;0.63;0.20;;;11.90;99.90;;;;;;5066124;28;20041;-67
2023/11/02 09:26:45;;;;;;;1.02;0.20;;;12.00;99.90;;;;;;5065590;28;20047;-67
2023/11/02 09:29:11;;;;;;;1.88;0.32;;;12.10;99.90;;;;;;5060147;28;20036;-67
2023/11/02 09:31:37;;;;;;;1.88;0.50;;;12.10;99.90;;;;;;5064415;28;20040;-67
2023/11/02 09:34:04;;;;;;;0.93;0.20;;;12.20;99.90;;;;;;5062225;28;20044;-67
2023/11/02 09:36:30;;;;;;;2.72;0.30;;;12.20;99.90;;;;;;5095651;28;20048;-67
2023/11/02 09:38:59;;;;;;;4.90;0.45;;;12.20;99.90;;;;;;5094797;28;20047;-67
2023/11/02 09:41:26;;;;;;;1.77;0.30;;;12.40;99.90;;;;;;5063564;28;20044;-67
2023/11/02 09:43:54;;;;;;;1.50;0.30;;;12.40;99.90;;;;;;5064613;28;20055;-67
2023/11/02 09:46:20;;;;;;;3.17;0.95;;;12.40;99.90;;;;;;5063312;28;20147;-67
2023/11/02 09:48:46;;;;;;;2.10;0.25;;;12.40;99.90;;;;;;5063468;28;20052;-67
2023/11/02 09:51:11;;;;;;;1.75;0.20;;;12.50;99.90;;;;;;5064791;28;20029;-67
2023/11/02 09:53:37;;;;;;;1.92;0.20;;;12.40;99.90;;;;;;5062303;28;20182;-68
2023/11/02 09:56:04;;;;;;;1.75;0.30;;;12.40;99.90;;;;;;5058219;28;20541;-67
2023/11/02 09:58:30;;;;;;;1.92;0.22;;;12.40;99.90;;;;;;5064252;28;20201;-67
2023/11/02 10:00:58;;;;;;;3.13;0.15;;;12.40;99.90;;;;;;5055859;28;20059;-66
2023/11/02 10:03:24;;;;;;;2.72;0.63;;;12.40;99.90;;;;;;5076168;28;20125;-66
2023/11/02 10:05:51;;;;;;;2.00;0.50;;;12.40;99.90;;;;;;5060366;28;20065;-67
2023/11/02 10:08:17;;;;;;;2.78;0.50;;;12.40;99.90;;;;;;5054502;28;20060;-67
2023/11/02 10:10:43;;;;;;;1.88;0.30;;;12.40;99.90;;;;;;5055190;28;20106;-67
2023/11/02 10:13:09;;;;;;;1.77;0.40;;;12.30;99.90;;;;;;5054361;28;20052;-66
2023/11/02 10:15:34;;;;;;;0.70;0.17;;;12.40;99.90;;;;;;5062591;28;20164;-66
2023/11/02 10:18:00;;;;;;;1.92;0.28;;;12.40;99.90;;;;;;5060341;28;20090;-66
2023/11/02 10:20:26;;;;;;;3.08;0.45;;;12.50;99.90;;;;;;5054528;28;20040;-66
2023/11/02 10:22:59;;;;;;;1.35;0.22;;;12.50;99.90;;;;;;5058834;28;20089;-67
2023/11/02 10:25:26;;;;;;;0.70;0.20;;;12.80;99.90;;;;;;5056196;28;20126;-66
2023/11/02 10:27:53;;;;;;;1.80;0.20;;;12.60;99.90;;;;;;5057395;28;20041;-66
2023/11/02 10:30:19;;;;;;;1.77;0.20;;;12.70;99.90;;;;;;5058926;28;20383;-66
2023/11/02 10:32:47;;;;;;;4.70;0.35;;;12.70;99.90;;;;;;5057298;28;20468;-66
2023/11/02 10:35:13;;;;;;;2.15;0.28;;;12.80;99.90;;;;;;5064996;28;20119;-66
2023/11/02 10:37:38;;;;;;;1.00;0.57;;;12.80;99.90;;;;;;5064308;28;20138;-66
2023/11/02 10:40:05;;;;;;;0.55;0.10;;;12.80;99.90;;;;;;5062909;28;20378;-67
2023/11/02 10:42:31;;;;;;;1.00;0.30;;;12.90;99.90;;;;;;5056908;28;20037;-67
2023/11/02 10:44:58;;;;;;;1.23;0.20;;;13.00;99.90;;;;;;5062123;28;20498;-66
2023/11/02 10:47:32;;;;;;;1.95;0.38;;;13.00;99.90;;;;;;5059080;28;20036;-66
2023/11/02 10:49:59;;;;;;;2.15;0.17;;;13.10;99.90;;;;;;5063618;28;20436;-66
2023/11/02 10:52:53;;;;;;;2.17;0.73;;;13.20;99.90;;;;;;5097365;27;20041;-66
2023/11/02 10:55:31;;;;;;;2.35;0.40;;;13.30;99.90;;;;;;5066298;28;20452;-67
2023/11/02 10:58:00;;;;;;;2.88;0.20;;;13.30;99.90;;;;;;5067524;28;20051;-66
2023/11/02 11:00:26;;;;;;;0.68;0.15;;;13.40;99.90;;;;;;5079052;28;20147;-66
2023/11/02 11:02:53;;;;;;;1.90;0.20;;;13.50;99.90;;;;;;5066136;28;20033;-66
2023/11/02 11:05:19;;;;;;;2.70;0.30;;;13.70;99.90;;;;;;5058273;28;20882;-66
2023/11/02 11:07:46;;;;;;;4.25;0.30;;;13.90;99.90;;;;;;5054914;28;20565;-66
2023/11/02 11:10:12;;;;;;;1.92;0.30;;;13.90;99.90;;;;;;5062332;28;20098;-66
2023/11/02 11:12:42;;;;;;;2.03;0.30;;;13.90;99.90;;;;;;5064254;28;20036;-66
2023/11/02 11:15:12;;;;;;;2.92;0.25;;;14.10;99.90;;;;;;5064522;28;20118;-66
2023/11/02 11:17:46;;;;;;;1.80;0.20;;;14.00;99.90;;;;;;5058414;28;20052;-66
2023/11/02 11:20:15;;;;;;;1.23;0.30;;;14.20;99.90;;;;;;5096365;28;20073;-66
2023/11/02 11:22:43;;;;;;;2.70;0.75;;;14.10;99.90;;;;;;5070049;28;20052;-66
2023/11/02 11:25:09;;;;;;;2.33;0.60;;;13.90;99.90;;;;;;5065115;28;20079;-66
2023/11/02 11:27:36;;;;;;;2.50;0.40;;;14.00;99.90;;;;;;5067376;28;20131;-66
2023/11/02 11:30:22;;;;;;;1.55;0.40;;;13.90;99.90;;;;;;5062757;28;20511;-66
2023/11/02 11:32:48;;;;;;;0.75;0.20;;;14.40;99.90;;;;;;5062862;28;20036;-67
2023/11/02 11:35:17;;;;;;;1.95;0.20;;;14.20;99.90;;;;;;5065256;28;20037;-66
2023/11/02 11:37:47;;;;;;;1.33;0.32;;;14.10;99.90;;;;;;5061845;28;20049;-66
2023/11/02 11:40:19;;;;;;;2.60;0.35;;;14.00;99.90;;;;;;5061231;28;20052;-67
2023/11/02 11:46:01;;;;;;;4.65;0.77;;;14.00;99.90;;;;;;5075885;28;20041;-67
2023/11/02 11:48:43;;;;;;;4.28;0.50;;;14.10;99.90;;;;;;5065314;28;20053;-67
2023/11/02 11:51:31;;;;;;;2.70;0.60;;;14.10;99.90;;;;;;5067070;28;20043;-67
2023/11/02 11:54:14;;;;;;;1.17;0.38;;;14.10;99.90;;;;;;5064234;28;20051;-67
2023/11/02 11:56:41;;;;;;;2.67;0.95;;;14.20;99.90;;;;;;5061449;28;20052;-67
2023/11/02 11:59:06;;;;;;;3.25;0.30;;;14.20;99.90;;;;;;5075121;28;20610;-67
2023/11/02 12:01:32;;;;;;;4.28;0.32;;;14.20;99.90;;;;;;5063389;28;20047;-67
2023/11/02 12:03:58;;;;;;;2.05;0.38;;;14.40;99.90;;;;;;5064179;28;20071;-67
2023/11/02 12:06:43;;;;;;;4.38;0.40;;;14.50;99.90;;;;;;5064149;28;20488;-67
2023/11/02 12:09:12;;;;;;;2.58;0.45;;;14.60;99.90;;;;;;5076155;28;20449;-67
2023/11/02 12:11:41;;;;;;;4.40;1.35;;;14.60;99.90;;;;;;5063038;28;20036;-67
2023/11/02 12:14:18;;;;;;;7.15;0.63;;;14.70;99.90;;;;;;5064334;28;20434;-67
2023/11/02 12:16:44;;;;;;;3.08;0.60;;;14.60;99.90;;;;;;5065108;28;20508;-67
2023/11/02 12:19:10;;;;;;;2.75;0.40;;;14.50;99.90;;;;;;5064398;28;20044;-67
2023/11/02 12:21:38;;;;;;;3.85;0.70;;;14.50;99.90;;;;;;5061954;28;20048;-67
2023/11/02 12:24:09;;;;;;;4.85;0.70;;;14.50;99.90;;;;;;5061404;28;20440;-67
2023/11/02 12:26:34;;;;;;;4.43;0.70;;;14.40;99.90;;;;;;5062008;28;20501;-67
2023/11/02 12:29:11;;;;;;;3.63;0.73;;;14.50;99.90;;;;;;5063791;28;20088;-67
2023/11/02 12:31:38;;;;;;;4.60;0.88;;;14.50;99.90;;;;;;5096989;28;20047;-67
2023/11/02 12:34:10;;;;;;;4.88;0.40;;;14.90;99.90;;;;;;5064969;28;20568;-67
2023/11/02 12:36:38;;;;;;;5.30;0.85;;;14.80;99.90;;;;;;5060457;28;20096;-67
2023/11/02 12:39:11;;;;;;;2.35;0.50;;;14.80;99.90;;;;;;5064044;28;20041;-67
2023/11/02 12:41:37;;;;;;;6.60;1.10;;;14.80;99.90;;;;;;5061994;28;20449;-67
2023/11/02 12:44:04;;;;;;;3.80;0.60;;;14.90;99.90;;;;;;5062821;28;20052;-67
2023/11/02 12:46:58;;;;;;;3.22;0.60;;;14.80;99.90;;;;;;5060689;28;20044;-67
2023/11/02 12:49:27;;;;;;;6.93;1.00;;;14.70;99.90;;;;;;5057019;28;20279;-67
2023/11/02 12:51:53;;;;;;;4.38;1.05;;;14.60;99.90;;;;;;5062278;28;20037;-67
2023/11/02 12:54:19;;;;;;;5.00;0.70;;;14.60;99.90;;;;;;5057562;28;20032;-67
2023/11/02 12:56:46;;;;;;;8.55;1.75;;;14.60;99.90;;;;;;5062583;28;20036;-67
2023/11/02 12:59:12;;;;;;;5.57;1.13;;;14.60;99.90;;;;;;5064722;28;20275;-67
2023/11/02 13:01:59;;;;;;;7.50;1.25;;;14.50;99.90;;;;;;5063260;28;20441;-67
2023/11/02 13:04:32;;;;;;;6.63;0.82;;;14.50;99.90;;;;;;5059687;28;20521;-67
2023/11/02 13:07:23;;;;;;;4.10;0.65;;;14.40;99.90;;;;;;5065342;28;20044;-67